Time;durP1;ratioP1;P1;durP2;ratioP2;P2;SDS_P1;SDS_P2;PMS_P1;PMS_P2;Temp;Humidity;BMP_temperature;BMP_pressure;BME280_temperature;BME280_humidity;BME280_pressure;Samples;Min_cycle;Max_cycle;Signal;HPM_P1;HPM_P2
2022/12/11 00:00:27;;;;;;;3.45;1.35;;;-4.80;99.90;;;;;;5091416;28;20421;-71
2022/12/11 00:02:53;;;;;;;1.98;1.85;;;-4.70;99.90;;;;;;5079276;28;20431;-71
2022/12/11 00:05:22;;;;;;;1.38;1.27;;;-4.60;99.90;;;;;;5087986;28;20426;-71
2022/12/11 00:07:51;;;;;;;1.67;1.58;;;-4.60;99.90;;;;;;5097524;28;20977;-71
2022/12/11 00:10:18;;;;;;;3.20;1.92;;;-4.60;99.90;;;;;;5101968;28;20478;-71
2022/12/11 00:12:45;;;;;;;2.63;1.98;;;-4.60;99.90;;;;;;5091979;28;20443;-72
2022/12/11 00:15:12;;;;;;;1.40;1.25;;;-4.50;99.90;;;;;;5089950;28;20440;-71
2022/12/11 00:17:39;;;;;;;2.00;1.75;;;-4.50;99.90;;;;;;5086108;28;20428;-71
2022/12/11 00:20:06;;;;;;;1.25;1.15;;;-4.50;99.90;;;;;;5088288;28;20430;-71
2022/12/11 00:22:34;;;;;;;0.97;0.97;;;-4.40;99.90;;;;;;5096395;28;20489;-71
2022/12/11 00:25:01;;;;;;;2.00;1.55;;;-4.30;99.90;;;;;;5099376;28;20427;-71
2022/12/11 00:27:28;;;;;;;1.20;1.20;;;-4.20;99.90;;;;;;5087766;28;20903;-71
2022/12/11 00:29:55;;;;;;;1.83;1.73;;;-4.10;99.90;;;;;;5101297;28;20510;-71
2022/12/11 00:32:21;;;;;;;2.87;1.80;;;-4.00;99.90;;;;;;5099284;28;20734;-71
2022/12/11 00:34:48;;;;;;;1.87;1.77;;;-3.90;99.90;;;;;;5096411;27;20426;-71
2022/12/11 00:37:15;;;;;;;3.20;2.20;;;-3.90;99.90;;;;;;5109298;28;20516;-71
2022/12/11 00:39:42;;;;;;;4.28;2.17;;;-4.00;99.90;;;;;;5099592;28;20435;-71
2022/12/11 00:42:09;;;;;;;3.83;1.63;;;-4.00;99.90;;;;;;5107802;28;20420;-71
2022/12/11 00:44:36;;;;;;;3.55;1.33;;;-4.00;99.90;;;;;;5088532;28;20832;-71
2022/12/11 00:47:03;;;;;;;1.25;1.15;;;-3.90;99.90;;;;;;5099779;28;20429;-71
2022/12/11 00:49:30;;;;;;;2.40;1.70;;;-4.00;99.90;;;;;;5091228;28;20511;-71
2022/12/11 00:51:59;;;;;;;1.70;1.60;;;-3.90;99.90;;;;;;5097277;28;20429;-71
2022/12/11 00:54:26;;;;;;;1.05;1.05;;;-3.90;99.90;;;;;;5077998;28;20430;-71
2022/12/11 00:56:54;;;;;;;3.15;1.65;;;-3.90;99.90;;;;;;5085800;28;21157;-71
2022/12/11 00:59:24;;;;;;;2.90;2.42;;;-3.80;99.90;;;;;;5078625;28;20435;-71
2022/12/11 01:01:51;;;;;;;1.83;1.73;;;-3.70;99.90;;;;;;5076407;28;20961;-70
2022/12/11 01:04:18;;;;;;;5.23;2.13;;;-3.70;99.90;;;;;;5071635;28;20444;-71
2022/12/11 01:06:44;;;;;;;2.10;1.42;;;-3.60;99.90;;;;;;5089682;28;20845;-71
2022/12/11 01:12:03;;;;;;;2.87;1.33;;;-3.60;99.90;;;;;;5087600;28;20519;-70
2022/12/11 01:14:30;;;;;;;1.77;1.13;;;-3.50;99.90;;;;;;5083616;28;20519;-70
2022/12/11 01:16:57;;;;;;;3.78;2.47;;;-3.50;99.90;;;;;;5089089;28;20518;-70
2022/12/11 01:19:24;;;;;;;3.80;1.55;;;-3.50;99.90;;;;;;5094098;28;20428;-71
2022/12/11 01:21:50;;;;;;;3.53;2.28;;;-3.60;99.90;;;;;;5094177;28;20428;-70
2022/12/11 01:24:17;;;;;;;1.90;1.65;;;-3.60;99.90;;;;;;5092515;28;20450;-70
2022/12/11 01:26:44;;;;;;;2.23;1.97;;;-3.70;99.90;;;;;;5092833;28;20422;-71
2022/12/11 01:29:11;;;;;;;2.47;1.97;;;-3.60;99.90;;;;;;5092685;28;20466;-71
2022/12/11 01:31:37;;;;;;;1.50;1.35;;;-3.70;99.90;;;;;;5089589;28;20424;-71
2022/12/11 01:34:06;;;;;;;4.50;1.85;;;-3.70;99.90;;;;;;5094797;28;20425;-70
2022/12/11 01:36:36;;;;;;;3.80;2.33;;;-3.60;99.90;;;;;;5089991;28;20438;-71
2022/12/11 01:39:03;;;;;;;3.50;1.65;;;-3.60;99.90;;;;;;5085661;28;20430;-71
2022/12/11 01:41:30;;;;;;;6.17;2.10;;;-3.60;99.90;;;;;;5086710;28;20435;-70
2022/12/11 01:44:02;;;;;;;1.80;1.48;;;-3.60;99.90;;;;;;5096383;28;20511;-70
2022/12/11 01:46:30;;;;;;;1.77;1.60;;;-3.60;99.90;;;;;;5079151;28;20429;-70
2022/12/11 01:48:58;;;;;;;8.23;3.05;;;-3.60;99.90;;;;;;5082356;28;20453;-70
2022/12/11 01:51:26;;;;;;;4.65;2.20;;;-3.50;99.90;;;;;;5086798;28;20430;-70
2022/12/11 01:54:00;;;;;;;4.22;1.55;;;-3.50;99.90;;;;;;5079980;28;20518;-70
2022/12/11 01:56:31;;;;;;;2.40;1.53;;;-3.40;99.90;;;;;;5094314;28;20756;-70
2022/12/11 01:59:05;;;;;;;4.03;2.42;;;-3.40;99.90;;;;;;5078544;28;20430;-71
2022/12/11 02:01:55;;;;;;;4.03;2.37;;;-3.30;99.90;;;;;;5081553;28;20506;-71
2022/12/11 02:04:23;;;;;;;3.58;2.97;;;-3.30;99.90;;;;;;5100239;28;20429;-73
2022/12/11 02:06:51;;;;;;;2.38;1.92;;;-3.30;99.90;;;;;;5082612;28;20427;-70
2022/12/11 02:09:25;;;;;;;3.08;1.98;;;-3.30;99.90;;;;;;5092323;28;20435;-71
2022/12/11 02:11:55;;;;;;;5.67;2.67;;;-3.20;99.90;;;;;;5085445;28;20516;-70
2022/12/11 02:14:39;;;;;;;7.07;2.60;;;-3.20;99.90;;;;;;5071398;28;21022;-71
2022/12/11 02:17:24;;;;;;;3.70;2.50;;;-3.20;99.90;;;;;;5076125;28;20430;-71
2022/12/11 02:20:08;;;;;;;9.82;2.42;;;-3.20;99.90;;;;;;5086457;28;20903;-71
2022/12/11 02:22:56;;;;;;;3.45;1.98;;;-3.10;99.90;;;;;;5071597;28;20441;-71
2022/12/11 02:25:40;;;;;;;2.00;1.65;;;-3.10;99.90;;;;;;5075382;28;20429;-71
2022/12/11 02:28:37;;;;;;;12.40;2.53;;;-3.00;99.90;;;;;;5073427;28;20512;-71
2022/12/11 02:31:16;;;;;;;2.50;1.75;;;-3.00;99.90;;;;;;5083264;28;20459;-71
2022/12/11 02:33:51;;;;;;;3.17;2.63;;;-3.00;99.90;;;;;;5084117;28;21048;-71
2022/12/11 02:36:22;;;;;;;4.40;2.92;;;-2.90;99.90;;;;;;5079578;28;20473;-71
2022/12/11 02:38:52;;;;;;;4.82;2.25;;;-2.90;99.90;;;;;;5077848;28;20517;-71
2022/12/11 02:41:22;;;;;;;1.95;1.38;;;-2.90;99.90;;;;;;5074164;28;20422;-71
2022/12/11 02:43:50;;;;;;;2.80;1.63;;;-2.90;99.90;;;;;;5078989;28;20952;-70
2022/12/11 02:46:23;;;;;;;3.50;2.53;;;-2.90;99.90;;;;;;5081424;28;20421;-71
2022/12/11 02:48:51;;;;;;;4.47;2.10;;;-2.80;99.90;;;;;;5074451;28;20775;-71
2022/12/11 02:51:27;;;;;;;3.85;1.88;;;-2.80;99.90;;;;;;5084315;28;20424;-71
2022/12/11 02:53:56;;;;;;;2.90;2.00;;;-2.80;99.90;;;;;;5081930;28;20459;-71
2022/12/11 02:56:37;;;;;;;3.10;2.37;;;-2.90;99.90;;;;;;5078201;28;20691;-71
2022/12/11 02:59:09;;;;;;;3.15;2.15;;;-2.90;99.90;;;;;;5073305;28;20438;-71
2022/12/11 03:01:40;;;;;;;3.35;1.65;;;-3.00;99.90;;;;;;5080360;28;20421;-71
2022/12/11 03:04:14;;;;;;;1.30;1.30;;;-3.00;99.90;;;;;;5091173;28;20434;-71
2022/12/11 03:06:46;;;;;;;1.92;1.83;;;-3.00;99.90;;;;;;5091380;28;20532;-71
2022/12/11 03:09:13;;;;;;;2.00;1.83;;;-3.00;99.90;;;;;;5083946;28;20440;-71
2022/12/11 03:11:45;;;;;;;3.60;2.20;;;-3.10;99.90;;;;;;5091942;28;20423;-71
2022/12/11 03:14:13;;;;;;;6.95;2.90;;;-3.10;99.90;;;;;;5089244;28;20458;-71
2022/12/11 03:17:03;;;;;;;1.90;1.80;;;-3.10;99.90;;;;;;5082328;28;20423;-71
2022/12/11 03:19:44;;;;;;;4.30;2.47;;;-3.10;99.90;;;;;;5084170;28;20957;-71
2022/12/11 03:22:37;;;;;;;4.57;2.50;;;-3.00;99.90;;;;;;5087914;28;20422;-71
2022/12/11 03:25:14;;;;;;;5.22;2.15;;;-3.00;99.90;;;;;;5080638;28;20941;-71
2022/12/11 03:27:53;;;;;;;5.93;2.13;;;-3.00;99.90;;;;;;5092778;28;20420;-71
2022/12/11 03:30:21;;;;;;;2.83;2.50;;;-2.90;99.90;;;;;;5089004;28;20463;-71
2022/12/11 03:32:56;;;;;;;3.45;1.63;;;-2.90;99.90;;;;;;5091212;28;20453;-71
2022/12/11 03:35:43;;;;;;;5.13;2.42;;;-2.90;99.90;;;;;;5091734;28;20424;-71
2022/12/11 03:38:29;;;;;;;1.85;1.75;;;-2.80;99.90;;;;;;5086932;28;20482;-71
2022/12/11 03:41:00;;;;;;;1.60;1.60;;;-2.80;99.90;;;;;;5083977;28;20492;-71
2022/12/11 03:43:30;;;;;;;3.65;2.38;;;-2.80;99.90;;;;;;5086712;28;20469;-71
2022/12/11 03:45:59;;;;;;;2.83;2.63;;;-2.80;99.90;;;;;;5095009;28;20480;-71
2022/12/11 03:48:32;;;;;;;3.83;1.92;;;-2.70;99.90;;;;;;5077586;27;20432;-71
2022/12/11 03:51:02;;;;;;;3.72;2.28;;;-2.70;99.90;;;;;;5087362;28;20506;-71
2022/12/11 03:53:32;;;;;;;4.13;2.13;;;-2.60;99.90;;;;;;5084181;28;20462;-71
2022/12/11 03:56:05;;;;;;;3.17;2.08;;;-2.70;99.90;;;;;;5084608;28;20427;-71
2022/12/11 03:58:34;;;;;;;4.93;2.65;;;-2.60;99.90;;;;;;5094115;28;20430;-71
2022/12/11 04:01:08;;;;;;;5.75;3.55;;;-2.60;99.90;;;;;;5089455;28;20423;-71
2022/12/11 04:03:35;;;;;;;3.00;1.83;;;-2.60;99.90;;;;;;5090025;27;20430;-71
2022/12/11 04:06:02;;;;;;;4.70;2.53;;;-2.50;99.90;;;;;;5087743;28;20519;-71
2022/12/11 04:08:31;;;;;;;4.05;2.28;;;-2.50;99.90;;;;;;5089821;28;20461;-71
2022/12/11 04:16:46;;;;;;;9.10;2.55;;;-2.50;99.90;;;;;;5074428;28;20459;-71
2022/12/11 04:24:48;;;;;;;5.00;2.67;;;-2.60;99.90;;;;;;5084295;28;20491;-71
2022/12/11 04:27:47;;;;;;;3.42;2.72;;;-2.60;99.90;;;;;;5096318;28;20609;-71
2022/12/11 04:30:07;;;;;;;7.32;2.40;;;-2.60;99.90;;;;;;5089876;28;20423;-71
2022/12/11 04:32:34;;;;;;;2.28;1.77;;;-2.60;99.90;;;;;;5097060;28;20531;-71
2022/12/11 04:35:01;;;;;;;4.60;2.60;;;-2.60;99.90;;;;;;5083825;28;20490;-71
2022/12/11 04:37:28;;;;;;;4.22;3.35;;;-2.60;99.90;;;;;;5096024;28;21253;-71
2022/12/11 04:39:54;;;;;;;4.80;2.17;;;-2.60;99.90;;;;;;5086247;28;20562;-71
2022/12/11 04:42:21;;;;;;;4.10;2.17;;;-2.60;99.90;;;;;;5087560;28;20506;-71
2022/12/11 04:44:48;;;;;;;3.47;3.17;;;-2.60;99.90;;;;;;5097179;28;20424;-71
2022/12/11 04:47:15;;;;;;;3.37;1.97;;;-2.60;99.90;;;;;;5085765;28;20521;-71
2022/12/11 04:49:44;;;;;;;3.10;2.50;;;-2.60;99.90;;;;;;5089096;28;20452;-71
2022/12/11 04:52:11;;;;;;;4.15;2.22;;;-2.60;99.90;;;;;;5096865;28;20506;-71
2022/12/11 04:54:41;;;;;;;2.53;1.95;;;-2.60;99.90;;;;;;5085180;28;20956;-71
2022/12/11 04:57:08;;;;;;;6.70;3.13;;;-2.70;99.90;;;;;;5095594;28;20426;-71
2022/12/11 04:59:36;;;;;;;5.28;2.42;;;-2.70;99.90;;;;;;5085862;28;20426;-71
2022/12/11 05:02:05;;;;;;;3.60;3.17;;;-2.70;99.90;;;;;;5084999;28;20441;-71
2022/12/11 05:04:34;;;;;;;2.17;2.00;;;-2.70;99.90;;;;;;5085152;28;20747;-71
2022/12/11 05:07:00;;;;;;;1.83;1.73;;;-2.80;99.90;;;;;;5094858;28;20516;-71
2022/12/11 05:09:28;;;;;;;2.05;1.90;;;-2.80;99.90;;;;;;5099987;28;20431;-71
2022/12/11 05:11:54;;;;;;;4.90;2.20;;;-2.80;99.90;;;;;;5089659;27;20779;-71
2022/12/11 05:14:21;;;;;;;3.42;2.47;;;-2.80;99.90;;;;;;5083259;28;20937;-71
2022/12/11 05:16:50;;;;;;;3.43;2.80;;;-2.70;99.90;;;;;;5087720;28;20453;-71
2022/12/11 05:19:17;;;;;;;5.40;2.60;;;-2.70;99.90;;;;;;5100994;28;20476;-71
2022/12/11 05:21:47;;;;;;;5.07;2.67;;;-2.60;99.90;;;;;;5093103;28;20424;-71
2022/12/11 05:24:14;;;;;;;4.00;2.53;;;-2.60;99.90;;;;;;5074237;28;20485;-71
2022/12/11 05:26:40;;;;;;;5.73;3.10;;;-2.60;99.90;;;;;;5098145;28;20967;-71
2022/12/11 05:29:07;;;;;;;3.53;2.28;;;-2.50;99.90;;;;;;5090094;28;20927;-71
2022/12/11 05:31:34;;;;;;;8.10;2.53;;;-2.50;99.90;;;;;;5094623;28;20424;-71
2022/12/11 05:34:04;;;;;;;4.18;2.88;;;-2.50;99.90;;;;;;5099150;28;20439;-71
2022/12/11 05:36:34;;;;;;;3.00;2.00;;;-2.60;99.90;;;;;;5098579;28;20430;-71
2022/12/11 05:39:03;;;;;;;3.85;2.60;;;-2.60;99.90;;;;;;5098068;28;20458;-71
2022/12/11 05:41:31;;;;;;;4.60;2.97;;;-2.60;99.90;;;;;;5074399;28;20849;-71
2022/12/11 05:43:58;;;;;;;4.82;2.65;;;-2.60;99.90;;;;;;5087349;28;20479;-71
2022/12/11 05:46:27;;;;;;;3.17;2.45;;;-2.70;99.90;;;;;;5082540;28;20425;-71
2022/12/11 05:48:57;;;;;;;2.60;2.07;;;-2.70;99.90;;;;;;5091732;28;20449;-71
2022/12/11 05:51:25;;;;;;;3.38;2.53;;;-2.70;99.90;;;;;;5080745;28;20908;-71
2022/12/11 05:53:53;;;;;;;2.10;1.90;;;-2.70;99.90;;;;;;5080349;28;20434;-71
2022/12/11 05:56:25;;;;;;;2.50;2.22;;;-2.70;99.90;;;;;;5066965;28;20431;-71
2022/12/11 05:58:54;;;;;;;3.65;2.45;;;-2.80;99.90;;;;;;5077806;28;20426;-71
2022/12/11 06:01:24;;;;;;;3.22;2.15;;;-2.80;99.90;;;;;;5081141;28;20426;-71
2022/12/11 06:03:52;;;;;;;1.70;1.60;;;-2.70;99.90;;;;;;5081363;28;20432;-71
2022/12/11 06:06:19;;;;;;;3.65;2.22;;;-2.70;99.90;;;;;;5077010;28;20461;-71
2022/12/11 06:08:53;;;;;;;4.25;2.33;;;-2.70;99.90;;;;;;5080192;28;20424;-71
2022/12/11 06:11:23;;;;;;;3.83;1.77;;;-2.70;99.90;;;;;;5079673;28;20483;-71
2022/12/11 06:13:52;;;;;;;4.40;2.80;;;-2.70;99.90;;;;;;5073923;28;20513;-71
2022/12/11 06:16:19;;;;;;;4.22;2.13;;;-2.80;99.90;;;;;;5078396;28;20427;-71
2022/12/11 06:18:46;;;;;;;2.78;2.40;;;-2.80;99.90;;;;;;5077124;28;20901;-71
2022/12/11 06:21:21;;;;;;;3.97;1.88;;;-2.90;99.90;;;;;;5092205;28;20430;-71
2022/12/11 06:23:51;;;;;;;4.85;2.17;;;-2.90;99.90;;;;;;5081820;28;20424;-71
2022/12/11 06:26:19;;;;;;;4.30;2.53;;;-2.90;99.90;;;;;;5084745;28;20430;-71
2022/12/11 06:28:49;;;;;;;5.90;2.30;;;-3.00;99.90;;;;;;5078059;28;20450;-71
2022/12/11 06:31:16;;;;;;;1.83;1.60;;;-3.00;99.90;;;;;;5082766;28;20426;-71
2022/12/11 06:33:44;;;;;;;2.92;2.20;;;-3.00;99.90;;;;;;5087175;28;20797;-71
2022/12/11 06:36:16;;;;;;;2.33;1.67;;;-3.10;99.90;;;;;;5078911;28;20503;-71
2022/12/11 06:38:43;;;;;;;4.23;3.43;;;-3.20;99.90;;;;;;5078078;28;20477;-71
2022/12/11 06:41:11;;;;;;;4.68;2.22;;;-3.10;99.90;;;;;;5076489;28;20488;-71
2022/12/11 06:43:39;;;;;;;4.67;2.37;;;-3.10;99.90;;;;;;5086622;28;20496;-71
2022/12/11 06:46:17;;;;;;;2.13;1.75;;;-3.00;99.90;;;;;;5073531;28;20436;-71
2022/12/11 06:48:45;;;;;;;5.25;3.22;;;-2.90;99.90;;;;;;5066894;28;20477;-71
2022/12/11 06:51:21;;;;;;;2.78;2.17;;;-2.80;99.90;;;;;;5077807;28;20474;-71
2022/12/11 06:53:53;;;;;;;2.80;1.90;;;-2.80;99.90;;;;;;5079147;28;20431;-70
2022/12/11 06:56:22;;;;;;;4.53;2.40;;;-2.80;99.90;;;;;;5084272;28;20553;-69
2022/12/11 06:58:50;;;;;;;3.60;2.50;;;-2.80;99.90;;;;;;5083123;28;21051;-69
2022/12/11 07:01:21;;;;;;;4.80;2.75;;;-2.70;99.90;;;;;;5080891;28;20439;-70
2022/12/11 07:03:48;;;;;;;3.08;2.63;;;-2.70;99.90;;;;;;5079974;28;20438;-69
2022/12/11 07:06:15;;;;;;;3.00;2.45;;;-2.70;99.90;;;;;;5085189;28;20441;-69
2022/12/11 07:08:42;;;;;;;8.70;4.57;;;-2.70;99.90;;;;;;5076912;28;20455;-70
2022/12/11 07:11:11;;;;;;;2.58;2.30;;;-2.70;99.90;;;;;;5082060;28;20427;-70
2022/12/11 07:13:39;;;;;;;4.78;3.63;;;-2.70;99.90;;;;;;5082107;28;20500;-69
2022/12/11 07:16:10;;;;;;;11.90;7.80;;;-2.60;99.90;;;;;;5083004;28;20521;-69
2022/12/11 07:18:39;;;;;;;4.63;2.40;;;-2.60;99.90;;;;;;5070234;28;20437;-69
2022/12/11 07:21:08;;;;;;;9.23;5.10;;;-2.60;99.90;;;;;;5081771;28;20435;-70
2022/12/11 07:23:35;;;;;;;8.27;2.67;;;-2.60;99.90;;;;;;5078238;28;20434;-69
2022/12/11 07:26:06;;;;;;;17.88;6.90;;;-2.50;99.90;;;;;;5075636;28;21022;-70
2022/12/11 07:28:34;;;;;;;7.10;3.57;;;-2.50;99.90;;;;;;5080575;28;20810;-70
2022/12/11 07:31:09;;;;;;;3.10;2.87;;;-2.40;99.90;;;;;;5078127;28;20439;-69
2022/12/11 07:33:36;;;;;;;3.40;2.10;;;-2.40;99.90;;;;;;5068919;28;20468;-70
2022/12/11 07:36:06;;;;;;;2.05;1.77;;;-2.30;99.90;;;;;;5073569;28;20427;-69
2022/12/11 07:38:34;;;;;;;6.25;3.22;;;-2.30;99.90;;;;;;5084006;28;20512;-69
2022/12/11 07:41:05;;;;;;;4.38;3.15;;;-2.20;99.90;;;;;;5076863;28;20426;-69
2022/12/11 07:43:35;;;;;;;4.80;2.80;;;-2.10;99.90;;;;;;5085110;28;20462;-69
2022/12/11 07:46:09;;;;;;;2.15;2.05;;;-2.10;99.90;;;;;;5094503;28;20489;-69
2022/12/11 07:48:38;;;;;;;3.75;3.08;;;-2.20;99.90;;;;;;5080469;28;20426;-70
2022/12/11 07:51:15;;;;;;;5.10;4.63;;;-2.10;99.90;;;;;;5081912;28;20434;-69
2022/12/11 07:53:47;;;;;;;3.90;2.73;;;-2.00;99.90;;;;;;5079558;28;20872;-69
2022/12/11 07:56:15;;;;;;;3.00;2.20;;;-1.90;99.90;;;;;;5085094;28;20433;-69
2022/12/11 07:58:42;;;;;;;4.43;1.73;;;-1.90;99.90;;;;;;5086907;28;20466;-70
2022/12/11 08:01:16;;;;;;;3.00;2.25;;;-1.90;99.90;;;;;;5088582;28;20433;-70
2022/12/11 08:03:44;;;;;;;3.03;2.38;;;-1.90;99.90;;;;;;5089741;28;20481;-70
2022/12/11 08:06:11;;;;;;;7.72;2.35;;;-1.90;99.90;;;;;;5081979;28;20542;-69
2022/12/11 08:08:40;;;;;;;4.05;3.55;;;-1.80;99.90;;;;;;5078535;28;20418;-70
2022/12/11 08:11:10;;;;;;;4.38;2.80;;;-1.80;99.90;;;;;;5086441;28;20425;-70
2022/12/11 08:13:40;;;;;;;7.10;2.67;;;-1.70;99.90;;;;;;5077888;28;20451;-69
2022/12/11 08:16:09;;;;;;;5.15;3.65;;;-1.70;99.90;;;;;;5076817;28;20427;-72
2022/12/11 08:18:36;;;;;;;3.60;2.28;;;-1.80;99.90;;;;;;5071699;28;21061;-66
2022/12/11 08:21:18;;;;;;;3.47;2.35;;;-1.80;99.90;;;;;;5078571;28;20431;-70
2022/12/11 08:23:45;;;;;;;6.07;2.50;;;-1.70;99.90;;;;;;5080683;28;20430;-69
2022/12/11 08:26:15;;;;;;;4.25;2.85;;;-1.60;99.90;;;;;;5081686;28;20431;-70
2022/12/11 08:28:42;;;;;;;3.90;2.47;;;-1.50;99.90;;;;;;5081232;28;20433;-69
2022/12/11 08:31:10;;;;;;;3.95;2.95;;;-1.50;99.90;;;;;;5078487;28;21355;-69
2022/12/11 08:33:39;;;;;;;4.18;2.20;;;-1.40;99.90;;;;;;5080020;28;20437;-70
2022/12/11 08:36:08;;;;;;;3.55;2.60;;;-1.40;99.90;;;;;;5083351;28;20991;-69
2022/12/11 08:38:38;;;;;;;3.15;2.50;;;-1.30;99.90;;;;;;5080673;28;20495;-70
2022/12/11 08:41:12;;;;;;;5.55;3.25;;;-1.30;99.90;;;;;;5078192;28;20432;-70
2022/12/11 08:43:39;;;;;;;4.55;3.42;;;-1.20;99.90;;;;;;5078682;28;20502;-70
2022/12/11 08:46:10;;;;;;;4.35;3.17;;;-1.30;99.90;;;;;;5078943;28;20460;-70
2022/12/11 08:48:39;;;;;;;3.40;3.00;;;-1.30;99.90;;;;;;5080532;28;20425;-70
2022/12/11 08:51:16;;;;;;;4.50;2.97;;;-1.20;99.90;;;;;;5085451;28;20451;-70
2022/12/11 08:53:43;;;;;;;5.15;3.20;;;-1.10;99.90;;;;;;5082652;28;20428;-70
2022/12/11 08:56:13;;;;;;;3.13;2.70;;;-1.00;99.90;;;;;;5077847;28;20433;-70
2022/12/11 08:58:40;;;;;;;4.65;2.83;;;-0.80;99.90;;;;;;5080405;28;20431;-70
2022/12/11 09:01:10;;;;;;;5.10;2.50;;;-0.80;99.90;;;;;;5084966;28;20433;-70
2022/12/11 09:03:39;;;;;;;12.48;4.22;;;-0.70;99.90;;;;;;5082102;28;20504;-70
2022/12/11 09:06:08;;;;;;;6.03;3.63;;;-0.80;99.90;;;;;;5084821;28;20474;-70
2022/12/11 09:08:35;;;;;;;8.73;3.17;;;-0.90;99.90;;;;;;5079643;28;21129;-70
2022/12/11 09:11:08;;;;;;;6.32;2.40;;;-1.00;99.90;;;;;;5088641;28;20483;-69
2022/12/11 09:13:35;;;;;;;3.25;2.85;;;-1.00;99.90;;;;;;5091784;28;20934;-69
2022/12/11 09:16:08;;;;;;;4.65;2.95;;;-1.00;99.90;;;;;;5091348;28;20429;-70
2022/12/11 09:18:36;;;;;;;7.75;3.08;;;-1.00;99.90;;;;;;5086672;28;20430;-70
2022/12/11 09:21:06;;;;;;;3.65;2.88;;;-1.00;99.90;;;;;;5073984;28;21020;-70
2022/12/11 09:23:39;;;;;;;4.33;2.97;;;-1.00;99.90;;;;;;5074863;28;20796;-70
2022/12/11 09:26:09;;;;;;;14.70;4.43;;;-0.80;99.90;;;;;;5074496;28;20425;-70
2022/12/11 09:28:37;;;;;;;5.07;3.40;;;-0.50;99.90;;;;;;5080228;28;20441;-70
2022/12/11 09:31:15;;;;;;;1.75;1.38;;;-0.20;99.90;;;;;;5083489;28;20429;-70
2022/12/11 09:33:43;;;;;;;11.02;4.35;;;-0.10;99.90;;;;;;5079184;28;20429;-73
2022/12/11 09:36:10;;;;;;;5.70;3.37;;;-0.10;99.90;;;;;;5082897;28;20499;-70
2022/12/11 09:38:37;;;;;;;5.28;3.97;;;-0.30;99.90;;;;;;5079998;28;20519;-70
2022/12/11 09:41:19;;;;;;;5.07;3.40;;;-0.30;99.90;;;;;;5077554;28;20434;-70
2022/12/11 09:44:15;;;;;;;8.00;3.80;;;-0.40;99.90;;;;;;5071128;28;20431;-70
2022/12/11 09:46:43;;;;;;;3.90;2.90;;;-0.60;99.90;;;;;;5075377;28;20435;-70
2022/12/11 09:49:24;;;;;;;6.53;3.43;;;-0.60;99.90;;;;;;5080796;28;20445;-70
2022/12/11 09:52:16;;;;;;;5.93;3.45;;;-0.60;99.90;;;;;;5084785;28;20911;-70
2022/12/11 09:54:53;;;;;;;4.60;2.90;;;-0.50;99.90;;;;;;5064157;28;20439;-69
2022/12/11 09:57:29;;;;;;;4.90;3.33;;;-0.60;99.90;;;;;;5081709;28;20499;-69
2022/12/11 10:00:09;;;;;;;4.90;3.50;;;-0.60;99.90;;;;;;5076810;28;20427;-69
2022/12/11 10:02:42;;;;;;;5.50;3.05;;;-0.60;99.90;;;;;;5075798;28;20417;-70
2022/12/11 10:05:25;;;;;;;3.53;3.22;;;-0.60;99.90;;;;;;5082447;28;20524;-70
2022/12/11 10:08:22;;;;;;;4.18;2.72;;;-0.60;99.90;;;;;;5082040;28;20437;-70
2022/12/11 10:10:54;;;;;;;7.55;3.60;;;-0.70;99.90;;;;;;5080160;28;20436;-70
2022/12/11 10:13:30;;;;;;;5.57;4.15;;;-0.80;99.90;;;;;;5075082;28;21162;-70
2022/12/11 10:16:08;;;;;;;7.72;3.72;;;-0.80;99.90;;;;;;5081760;28;20430;-70
2022/12/11 10:18:36;;;;;;;7.88;3.10;;;-0.70;99.90;;;;;;5075749;28;21017;-71
2022/12/11 10:21:03;;;;;;;3.58;2.63;;;-0.60;99.90;;;;;;5088433;28;20490;-71
2022/12/11 10:23:36;;;;;;;4.50;3.10;;;-0.60;99.90;;;;;;5084418;28;20494;-69
2022/12/11 10:26:03;;;;;;;4.70;2.80;;;-0.40;99.90;;;;;;5079107;28;20426;-70
2022/12/11 10:28:30;;;;;;;8.73;4.15;;;-0.40;99.90;;;;;;5075703;28;20435;-69
2022/12/11 10:31:27;;;;;;;3.20;2.83;;;-0.40;99.90;;;;;;5074651;28;20522;-70
2022/12/11 10:34:03;;;;;;;4.68;3.40;;;-0.30;99.90;;;;;;5075530;28;20433;-70
2022/12/11 10:36:36;;;;;;;9.35;4.70;;;-0.20;99.90;;;;;;5080582;28;20439;-70
2022/12/11 10:39:12;;;;;;;3.33;3.03;;;-0.20;99.90;;;;;;5084337;28;20426;-69
2022/12/11 10:41:42;;;;;;;4.60;3.22;;;-0.20;99.90;;;;;;5088315;28;20483;-70
2022/12/11 10:44:16;;;;;;;8.23;3.92;;;-0.30;99.90;;;;;;5089822;28;20487;-70
2022/12/11 10:46:45;;;;;;;5.28;3.72;;;-0.30;99.90;;;;;;5080775;28;20514;-70
2022/12/11 10:49:27;;;;;;;3.35;3.05;;;-0.40;99.90;;;;;;5081228;28;20429;-70
2022/12/11 10:51:55;;;;;;;5.93;3.60;;;-0.40;99.90;;;;;;5087084;28;20429;-70
2022/12/11 10:54:37;;;;;;;5.45;2.97;;;-0.20;99.90;;;;;;5082520;28;20441;-70
2022/12/11 10:57:10;;;;;;;5.27;3.10;;;-0.20;99.90;;;;;;5087685;28;20436;-70
2022/12/11 10:59:38;;;;;;;8.73;3.63;;;-0.10;99.90;;;;;;5091741;28;20432;-70
2022/12/11 11:02:17;;;;;;;4.47;3.05;;;0.00;99.90;;;;;;5086852;28;20969;-70
2022/12/11 11:04:44;;;;;;;4.85;3.50;;;0.00;99.90;;;;;;5088790;28;20483;-70
2022/12/11 11:07:17;;;;;;;5.93;4.05;;;0.20;99.90;;;;;;5081539;28;20430;-70
2022/12/11 11:09:44;;;;;;;4.93;3.22;;;0.30;99.90;;;;;;5091819;28;20469;-70
2022/12/11 11:12:17;;;;;;;9.90;3.13;;;0.40;99.90;;;;;;5084198;28;20429;-70
2022/12/11 11:14:46;;;;;;;11.20;4.68;;;0.40;99.90;;;;;;5091593;28;20429;-70
2022/12/11 11:17:15;;;;;;;5.90;3.95;;;0.50;99.90;;;;;;5086788;28;20772;-70
2022/12/11 11:19:47;;;;;;;4.85;2.58;;;0.50;99.90;;;;;;5091784;28;20917;-70
2022/12/11 11:22:16;;;;;;;8.80;4.07;;;0.60;99.90;;;;;;5085700;28;20433;-69
2022/12/11 11:24:45;;;;;;;9.50;3.65;;;0.50;99.90;;;;;;5091967;28;20482;-70
2022/12/11 11:27:13;;;;;;;5.65;3.47;;;0.40;99.90;;;;;;5087145;28;20430;-70
2022/12/11 11:29:41;;;;;;;12.38;3.97;;;0.50;99.90;;;;;;5095504;28;20459;-71
2022/12/11 11:32:16;;;;;;;7.35;3.08;;;0.50;99.90;;;;;;5089836;28;20921;-72
2022/12/11 11:34:43;;;;;;;6.70;3.22;;;0.50;99.90;;;;;;5081391;28;20438;-72
2022/12/11 11:37:26;;;;;;;3.38;2.63;;;0.50;99.90;;;;;;5091450;28;20538;-72
2022/12/11 11:39:56;;;;;;;8.15;2.83;;;0.50;99.90;;;;;;5084508;28;20817;-72
2022/12/11 11:42:34;;;;;;;5.53;4.47;;;0.50;99.90;;;;;;5078392;28;20431;-72
2022/12/11 11:45:21;;;;;;;7.07;3.13;;;0.60;99.90;;;;;;5076768;28;20432;-71
2022/12/11 11:48:11;;;;;;;9.05;4.30;;;0.60;99.90;;;;;;5083628;28;20427;-71
2022/12/11 11:50:43;;;;;;;3.70;3.30;;;0.80;99.90;;;;;;5068755;28;20428;-72
2022/12/11 11:53:29;;;;;;;5.53;3.87;;;0.90;99.90;;;;;;5079565;28;20430;-72
2022/12/11 11:56:20;;;;;;;4.47;3.33;;;0.80;99.90;;;;;;5081067;28;20426;-72
2022/12/11 11:58:55;;;;;;;10.55;3.80;;;0.90;99.90;;;;;;5078750;28;20431;-71
2022/12/11 12:01:21;;;;;;;5.57;3.83;;;0.90;99.90;;;;;;5082509;28;20424;-72
2022/12/11 12:03:49;;;;;;;5.93;4.18;;;0.90;99.90;;;;;;5094793;28;20427;-72
2022/12/11 12:06:37;;;;;;;3.63;2.38;;;1.00;99.90;;;;;;5076409;28;20425;-72
2022/12/11 12:09:17;;;;;;;9.15;3.35;;;1.20;99.90;;;;;;5089257;28;20417;-72
2022/12/11 12:11:59;;;;;;;6.65;2.80;;;1.20;99.90;;;;;;5073437;28;20463;-72
2022/12/11 12:14:46;;;;;;;5.78;3.55;;;1.20;99.90;;;;;;5086453;28;20517;-71
2022/12/11 12:17:48;;;;;;;4.03;3.70;;;1.10;99.90;;;;;;5079131;28;20432;-72
2022/12/11 12:21:01;;;;;;;6.95;3.35;;;1.00;99.90;;;;;;5083545;28;20431;-72
2022/12/11 12:23:47;;;;;;;3.95;3.03;;;0.90;99.90;;;;;;5077707;28;21183;-72
2022/12/11 12:26:20;;;;;;;3.97;2.72;;;0.90;99.90;;;;;;5080345;28;20426;-73
2022/12/11 12:29:12;;;;;;;5.90;2.45;;;0.80;99.90;;;;;;5081918;28;20430;-72
2022/12/11 12:32:00;;;;;;;3.65;3.35;;;0.70;99.90;;;;;;5088879;28;20467;-73
2022/12/11 12:34:39;;;;;;;6.25;3.92;;;0.50;99.90;;;;;;5085388;28;20423;-72
2022/12/11 12:37:45;;;;;;;4.13;3.47;;;0.20;99.90;;;;;;5091332;28;20432;-73
2022/12/11 12:40:17;;;;;;;6.68;2.75;;;0.10;99.90;;;;;;5081147;28;20901;-73
2022/12/11 12:43:05;;;;;;;5.75;3.03;;;0.00;99.90;;;;;;5091083;28;20437;-72
2022/12/11 12:45:37;;;;;;;4.18;2.67;;;-0.10;99.90;;;;;;5084768;28;20427;-73
2022/12/11 12:48:07;;;;;;;7.60;3.45;;;-0.10;99.90;;;;;;5078669;28;20550;-73
2022/12/11 12:50:42;;;;;;;4.75;2.58;;;-0.10;99.90;;;;;;5086921;28;20514;-72
2022/12/11 12:53:26;;;;;;;6.45;3.50;;;-0.10;99.90;;;;;;5088256;28;20429;-73
2022/12/11 12:55:53;;;;;;;7.95;3.30;;;0.00;99.90;;;;;;5080938;28;20453;-73
2022/12/11 12:58:44;;;;;;;5.10;2.45;;;0.00;99.90;;;;;;5078159;28;20525;-72
2022/12/11 13:01:11;;;;;;;5.63;3.17;;;0.10;99.90;;;;;;5075797;28;20497;-72
2022/12/11 13:03:54;;;;;;;6.18;4.15;;;0.10;99.90;;;;;;5055346;28;20425;-72
2022/12/11 13:06:40;;;;;;;5.57;2.88;;;0.10;99.90;;;;;;5061345;28;20423;-73
2022/12/11 13:09:17;;;;;;;3.22;2.92;;;0.00;99.90;;;;;;5060925;28;20935;-72
2022/12/11 13:11:48;;;;;;;4.47;3.33;;;0.10;99.90;;;;;;5051740;28;20429;-73
2022/12/11 13:14:15;;;;;;;3.67;3.13;;;0.10;99.90;;;;;;5065010;28;20469;-72
2022/12/11 13:16:44;;;;;;;5.83;3.27;;;0.10;99.90;;;;;;5058675;28;20456;-72
2022/12/11 13:19:26;;;;;;;4.83;2.03;;;0.20;99.90;;;;;;5059610;28;20435;-74
2022/12/11 13:22:19;;;;;;;4.18;3.45;;;0.30;99.90;;;;;;5069482;28;20860;-73
2022/12/11 13:24:52;;;;;;;4.03;2.93;;;0.30;99.90;;;;;;5069145;28;20589;-72
2022/12/11 13:27:39;;;;;;;4.63;2.83;;;0.20;99.90;;;;;;5066446;28;20936;-72